sensor_id;sensor_type;location;lat;lon;timestamp;P1;durP1;ratioP1;P2;durP2;ratioP2
31760;SDS011;18335;51.486;7.562;2023-07-16T00:01:16;6.35;;;1.63;;
31760;SDS011;18335;51.486;7.562;2023-07-16T00:03:42;8.80;;;2.30;;
31760;SDS011;18335;51.486;7.562;2023-07-16T00:06:14;5.07;;;1.70;;
31760;SDS011;18335;51.486;7.562;2023-07-16T00:08:43;5.25;;;1.65;;
31760;SDS011;18335;51.486;7.562;2023-07-16T00:11:10;4.13;;;1.67;;
31760;SDS011;18335;51.486;7.562;2023-07-16T00:13:37;4.97;;;2.13;;
31760;SDS011;18335;51.486;7.562;2023-07-16T00:16:04;5.38;;;2.25;;
31760;SDS011;18335;51.486;7.562;2023-07-16T00:18:31;6.22;;;1.83;;
31760;SDS011;18335;51.486;7.562;2023-07-16T00:20:57;5.18;;;1.90;;
31760;SDS011;18335;51.486;7.562;2023-07-16T00:23:24;7.45;;;2.08;;
31760;SDS011;18335;51.486;7.562;2023-07-16T00:25:52;5.65;;;1.92;;
31760;SDS011;18335;51.486;7.562;2023-07-16T00:28:19;6.75;;;2.10;;
31760;SDS011;18335;51.486;7.562;2023-07-16T00:30:46;7.20;;;2.15;;
31760;SDS011;18335;51.486;7.562;2023-07-16T00:33:13;6.63;;;1.80;;
31760;SDS011;18335;51.486;7.562;2023-07-16T00:35:46;10.10;;;2.05;;
31760;SDS011;18335;51.486;7.562;2023-07-16T00:38:13;6.25;;;1.88;;
31760;SDS011;18335;51.486;7.562;2023-07-16T00:40:40;5.07;;;1.70;;
31760;SDS011;18335;51.486;7.562;2023-07-16T00:43:08;5.60;;;1.45;;
31760;SDS011;18335;51.486;7.562;2023-07-16T00:45:36;4.88;;;2.03;;
31760;SDS011;18335;51.486;7.562;2023-07-16T00:48:07;5.40;;;1.60;;
31760;SDS011;18335;51.486;7.562;2023-07-16T00:50:34;8.02;;;2.08;;
31760;SDS011;18335;51.486;7.562;2023-07-16T00:53:04;6.20;;;1.95;;
31760;SDS011;18335;51.486;7.562;2023-07-16T00:55:32;8.95;;;2.17;;
31760;SDS011;18335;51.486;7.562;2023-07-16T00:58:01;6.45;;;1.90;;
31760;SDS011;18335;51.486;7.562;2023-07-16T01:00:32;8.07;;;2.30;;
31760;SDS011;18335;51.486;7.562;2023-07-16T01:03:04;5.63;;;1.85;;
31760;SDS011;18335;51.486;7.562;2023-07-16T01:05:34;6.78;;;1.92;;
31760;SDS011;18335;51.486;7.562;2023-07-16T01:08:09;5.50;;;1.90;;
31760;SDS011;18335;51.486;7.562;2023-07-16T01:10:37;3.60;;;1.65;;
31760;SDS011;18335;51.486;7.562;2023-07-16T01:13:06;5.65;;;1.88;;
31760;SDS011;18335;51.486;7.562;2023-07-16T01:15:34;5.07;;;1.48;;
31760;SDS011;18335;51.486;7.562;2023-07-16T01:18:01;4.97;;;1.50;;
31760;SDS011;18335;51.486;7.562;2023-07-16T01:20:29;5.30;;;1.80;;
31760;SDS011;18335;51.486;7.562;2023-07-16T01:23:05;5.85;;;1.88;;
31760;SDS011;18335;51.486;7.562;2023-07-16T01:28:27;4.13;;;1.20;;
31760;SDS011;18335;51.486;7.562;2023-07-16T01:31:12;5.47;;;1.60;;
31760;SDS011;18335;51.486;7.562;2023-07-16T01:33:39;7.63;;;1.95;;
31760;SDS011;18335;51.486;7.562;2023-07-16T01:36:12;5.10;;;1.85;;
31760;SDS011;18335;51.486;7.562;2023-07-16T01:38:39;8.27;;;2.15;;
31760;SDS011;18335;51.486;7.562;2023-07-16T01:41:06;6.93;;;1.80;;
31760;SDS011;18335;51.486;7.562;2023-07-16T01:43:33;4.70;;;1.75;;
31760;SDS011;18335;51.486;7.562;2023-07-16T01:46:00;8.40;;;1.90;;
31760;SDS011;18335;51.486;7.562;2023-07-16T01:48:33;5.57;;;1.90;;
31760;SDS011;18335;51.486;7.562;2023-07-16T01:51:02;8.63;;;2.03;;
31760;SDS011;18335;51.486;7.562;2023-07-16T01:53:29;5.82;;;2.08;;
31760;SDS011;18335;51.486;7.562;2023-07-16T01:55:57;6.38;;;1.80;;
31760;SDS011;18335;51.486;7.562;2023-07-16T01:58:24;5.00;;;1.58;;
31760;SDS011;18335;51.486;7.562;2023-07-16T02:00:50;4.75;;;1.73;;
31760;SDS011;18335;51.486;7.562;2023-07-16T02:03:17;5.22;;;1.38;;
31760;SDS011;18335;51.486;7.562;2023-07-16T02:05:45;4.45;;;1.65;;
31760;SDS011;18335;51.486;7.562;2023-07-16T02:08:12;4.93;;;1.55;;
31760;SDS011;18335;51.486;7.562;2023-07-16T02:10:39;7.72;;;1.90;;
31760;SDS011;18335;51.486;7.562;2023-07-16T02:13:05;8.35;;;1.88;;
31760;SDS011;18335;51.486;7.562;2023-07-16T02:15:32;8.60;;;1.88;;
31760;SDS011;18335;51.486;7.562;2023-07-16T02:21:54;8.00;;;2.88;;
31760;SDS011;18335;51.486;7.562;2023-07-16T02:24:21;5.85;;;2.08;;
31760;SDS011;18335;51.486;7.562;2023-07-16T02:26:50;8.07;;;1.67;;
31760;SDS011;18335;51.486;7.562;2023-07-16T02:29:17;7.68;;;1.88;;
31760;SDS011;18335;51.486;7.562;2023-07-16T02:31:44;6.68;;;1.98;;
31760;SDS011;18335;51.486;7.562;2023-07-16T02:34:13;6.53;;;1.70;;
31760;SDS011;18335;51.486;7.562;2023-07-16T02:36:40;5.90;;;2.00;;
31760;SDS011;18335;51.486;7.562;2023-07-16T02:39:08;4.95;;;1.90;;
31760;SDS011;18335;51.486;7.562;2023-07-16T02:41:35;7.95;;;2.63;;
31760;SDS011;18335;51.486;7.562;2023-07-16T02:44:03;5.97;;;2.20;;
31760;SDS011;18335;51.486;7.562;2023-07-16T02:46:31;5.30;;;2.10;;
31760;SDS011;18335;51.486;7.562;2023-07-16T02:48:58;5.45;;;1.90;;
31760;SDS011;18335;51.486;7.562;2023-07-16T02:51:25;5.75;;;2.33;;
31760;SDS011;18335;51.486;7.562;2023-07-16T02:53:52;8.75;;;2.55;;
31760;SDS011;18335;51.486;7.562;2023-07-16T02:56:20;6.15;;;1.75;;
31760;SDS011;18335;51.486;7.562;2023-07-16T02:58:47;5.88;;;2.20;;
31760;SDS011;18335;51.486;7.562;2023-07-16T03:01:14;7.07;;;2.00;;
31760;SDS011;18335;51.486;7.562;2023-07-16T03:03:41;9.38;;;2.33;;
31760;SDS011;18335;51.486;7.562;2023-07-16T03:06:08;4.60;;;1.70;;
31760;SDS011;18335;51.486;7.562;2023-07-16T03:08:35;7.25;;;2.10;;
31760;SDS011;18335;51.486;7.562;2023-07-16T03:11:02;5.20;;;2.00;;
31760;SDS011;18335;51.486;7.562;2023-07-16T03:13:30;8.77;;;3.50;;
31760;SDS011;18335;51.486;7.562;2023-07-16T03:15:57;9.20;;;2.45;;
31760;SDS011;18335;51.486;7.562;2023-07-16T03:18:27;7.70;;;2.25;;
31760;SDS011;18335;51.486;7.562;2023-07-16T03:20:54;11.52;;;2.60;;
31760;SDS011;18335;51.486;7.562;2023-07-16T03:23:22;6.93;;;1.75;;
31760;SDS011;18335;51.486;7.562;2023-07-16T03:25:49;5.05;;;2.05;;
31760;SDS011;18335;51.486;7.562;2023-07-16T03:28:16;5.78;;;2.20;;
31760;SDS011;18335;51.486;7.562;2023-07-16T03:30:46;11.25;;;3.78;;
31760;SDS011;18335;51.486;7.562;2023-07-16T03:33:13;8.07;;;2.05;;
31760;SDS011;18335;51.486;7.562;2023-07-16T03:35:41;8.57;;;2.10;;
31760;SDS011;18335;51.486;7.562;2023-07-16T03:38:09;6.60;;;2.00;;
31760;SDS011;18335;51.486;7.562;2023-07-16T03:40:35;8.00;;;2.13;;
31760;SDS011;18335;51.486;7.562;2023-07-16T03:43:02;8.95;;;2.33;;
31760;SDS011;18335;51.486;7.562;2023-07-16T03:45:29;10.05;;;1.88;;
31760;SDS011;18335;51.486;7.562;2023-07-16T03:47:57;6.25;;;2.33;;
31760;SDS011;18335;51.486;7.562;2023-07-16T03:50:24;6.57;;;1.90;;
31760;SDS011;18335;51.486;7.562;2023-07-16T03:52:51;10.02;;;1.75;;
31760;SDS011;18335;51.486;7.562;2023-07-16T03:55:18;6.65;;;1.98;;
31760;SDS011;18335;51.486;7.562;2023-07-16T03:57:45;5.60;;;1.60;;
31760;SDS011;18335;51.486;7.562;2023-07-16T04:00:12;8.40;;;1.88;;
31760;SDS011;18335;51.486;7.562;2023-07-16T04:02:39;6.57;;;1.65;;
31760;SDS011;18335;51.486;7.562;2023-07-16T04:05:12;6.03;;;1.95;;
31760;SDS011;18335;51.486;7.562;2023-07-16T04:07:39;8.15;;;2.10;;
31760;SDS011;18335;51.486;7.562;2023-07-16T04:10:06;8.02;;;1.70;;
31760;SDS011;18335;51.486;7.562;2023-07-16T04:12:34;7.03;;;1.88;;
31760;SDS011;18335;51.486;7.562;2023-07-16T04:15:00;7.20;;;2.00;;
31760;SDS011;18335;51.486;7.562;2023-07-16T04:17:33;7.13;;;2.05;;
31760;SDS011;18335;51.486;7.562;2023-07-16T04:20:01;8.63;;;2.15;;
31760;SDS011;18335;51.486;7.562;2023-07-16T04:22:33;12.75;;;2.67;;
31760;SDS011;18335;51.486;7.562;2023-07-16T04:24:59;8.82;;;2.63;;
31760;SDS011;18335;51.486;7.562;2023-07-16T04:27:27;7.93;;;2.60;;
31760;SDS011;18335;51.486;7.562;2023-07-16T04:29:55;9.05;;;2.55;;
31760;SDS011;18335;51.486;7.562;2023-07-16T04:32:22;8.35;;;2.13;;
31760;SDS011;18335;51.486;7.562;2023-07-16T04:34:49;5.72;;;2.00;;
31760;SDS011;18335;51.486;7.562;2023-07-16T04:37:16;8.75;;;2.22;;
31760;SDS011;18335;51.486;7.562;2023-07-16T04:39:44;5.47;;;2.45;;
31760;SDS011;18335;51.486;7.562;2023-07-16T04:42:11;9.35;;;2.47;;
31760;SDS011;18335;51.486;7.562;2023-07-16T04:44:37;7.47;;;2.00;;
31760;SDS011;18335;51.486;7.562;2023-07-16T04:47:04;8.63;;;1.95;;
31760;SDS011;18335;51.486;7.562;2023-07-16T04:49:33;5.60;;;1.65;;
31760;SDS011;18335;51.486;7.562;2023-07-16T04:52:02;9.50;;;2.25;;
31760;SDS011;18335;51.486;7.562;2023-07-16T04:54:34;6.75;;;1.98;;
31760;SDS011;18335;51.486;7.562;2023-07-16T04:57:04;5.65;;;2.00;;
31760;SDS011;18335;51.486;7.562;2023-07-16T04:59:32;7.60;;;2.17;;
31760;SDS011;18335;51.486;7.562;2023-07-16T05:01:59;11.60;;;2.33;;
31760;SDS011;18335;51.486;7.562;2023-07-16T05:04:26;12.73;;;2.70;;
31760;SDS011;18335;51.486;7.562;2023-07-16T05:06:52;7.05;;;2.28;;
31760;SDS011;18335;51.486;7.562;2023-07-16T05:09:19;5.93;;;2.25;;
31760;SDS011;18335;51.486;7.562;2023-07-16T05:11:46;10.18;;;3.42;;
31760;SDS011;18335;51.486;7.562;2023-07-16T05:14:15;6.70;;;2.08;;
31760;SDS011;18335;51.486;7.562;2023-07-16T05:16:42;9.02;;;2.85;;
31760;SDS011;18335;51.486;7.562;2023-07-16T05:19:09;8.70;;;2.47;;
31760;SDS011;18335;51.486;7.562;2023-07-16T05:21:36;8.30;;;2.78;;
31760;SDS011;18335;51.486;7.562;2023-07-16T05:24:03;14.57;;;2.78;;
31760;SDS011;18335;51.486;7.562;2023-07-16T05:26:31;9.43;;;3.13;;
31760;SDS011;18335;51.486;7.562;2023-07-16T05:28:58;9.13;;;3.15;;
31760;SDS011;18335;51.486;7.562;2023-07-16T05:31:27;10.02;;;3.38;;
31760;SDS011;18335;51.486;7.562;2023-07-16T05:33:53;7.05;;;2.47;;
31760;SDS011;18335;51.486;7.562;2023-07-16T05:36:23;8.90;;;2.42;;
31760;SDS011;18335;51.486;7.562;2023-07-16T05:38:50;11.45;;;3.30;;
31760;SDS011;18335;51.486;7.562;2023-07-16T05:41:17;12.85;;;2.88;;
31760;SDS011;18335;51.486;7.562;2023-07-16T05:43:44;9.02;;;2.85;;
31760;SDS011;18335;51.486;7.562;2023-07-16T05:46:11;11.13;;;4.32;;
31760;SDS011;18335;51.486;7.562;2023-07-16T05:48:39;8.90;;;3.00;;
31760;SDS011;18335;51.486;7.562;2023-07-16T05:51:06;8.40;;;2.67;;
31760;SDS011;18335;51.486;7.562;2023-07-16T05:53:33;9.10;;;2.60;;
31760;SDS011;18335;51.486;7.562;2023-07-16T05:55:59;10.57;;;3.10;;
31760;SDS011;18335;51.486;7.562;2023-07-16T05:58:27;8.73;;;2.75;;
31760;SDS011;18335;51.486;7.562;2023-07-16T06:00:55;9.63;;;2.42;;
31760;SDS011;18335;51.486;7.562;2023-07-16T06:03:22;8.43;;;2.47;;
31760;SDS011;18335;51.486;7.562;2023-07-16T06:05:50;8.90;;;2.78;;
31760;SDS011;18335;51.486;7.562;2023-07-16T06:08:17;17.50;;;4.20;;
31760;SDS011;18335;51.486;7.562;2023-07-16T06:10:44;9.23;;;3.00;;
31760;SDS011;18335;51.486;7.562;2023-07-16T06:13:11;8.20;;;3.65;;
31760;SDS011;18335;51.486;7.562;2023-07-16T06:15:38;10.70;;;3.35;;
31760;SDS011;18335;51.486;7.562;2023-07-16T06:18:05;11.45;;;3.63;;
31760;SDS011;18335;51.486;7.562;2023-07-16T06:20:32;15.68;;;4.32;;
31760;SDS011;18335;51.486;7.562;2023-07-16T06:23:00;9.18;;;3.50;;
31760;SDS011;18335;51.486;7.562;2023-07-16T06:25:27;12.63;;;3.67;;
31760;SDS011;18335;51.486;7.562;2023-07-16T06:27:55;7.13;;;2.90;;
31760;SDS011;18335;51.486;7.562;2023-07-16T06:30:25;10.77;;;3.92;;
31760;SDS011;18335;51.486;7.562;2023-07-16T06:32:51;13.30;;;4.45;;
31760;SDS011;18335;51.486;7.562;2023-07-16T06:35:19;10.98;;;3.70;;
31760;SDS011;18335;51.486;7.562;2023-07-16T06:37:46;17.13;;;3.95;;
31760;SDS011;18335;51.486;7.562;2023-07-16T06:40:15;11.23;;;4.20;;
31760;SDS011;18335;51.486;7.562;2023-07-16T06:42:42;15.30;;;4.97;;
31760;SDS011;18335;51.486;7.562;2023-07-16T06:45:09;13.40;;;3.40;;
31760;SDS011;18335;51.486;7.562;2023-07-16T06:47:36;13.05;;;4.13;;
31760;SDS011;18335;51.486;7.562;2023-07-16T06:50:03;9.65;;;4.18;;
31760;SDS011;18335;51.486;7.562;2023-07-16T06:52:31;10.50;;;4.20;;
31760;SDS011;18335;51.486;7.562;2023-07-16T06:54:59;10.38;;;4.07;;
31760;SDS011;18335;51.486;7.562;2023-07-16T06:57:28;13.15;;;4.05;;
31760;SDS011;18335;51.486;7.562;2023-07-16T06:59:55;15.40;;;4.50;;
31760;SDS011;18335;51.486;7.562;2023-07-16T07:02:21;17.02;;;4.72;;
31760;SDS011;18335;51.486;7.562;2023-07-16T07:04:48;13.88;;;4.90;;
31760;SDS011;18335;51.486;7.562;2023-07-16T07:07:15;14.48;;;4.43;;
31760;SDS011;18335;51.486;7.562;2023-07-16T07:09:41;13.00;;;4.35;;
31760;SDS011;18335;51.486;7.562;2023-07-16T07:12:08;13.50;;;4.28;;
31760;SDS011;18335;51.486;7.562;2023-07-16T07:14:37;9.45;;;3.88;;
31760;SDS011;18335;51.486;7.562;2023-07-16T07:17:04;11.68;;;4.40;;
31760;SDS011;18335;51.486;7.562;2023-07-16T07:19:31;14.35;;;4.25;;
31760;SDS011;18335;51.486;7.562;2023-07-16T07:21:58;10.93;;;4.28;;
31760;SDS011;18335;51.486;7.562;2023-07-16T07:24:25;11.55;;;4.15;;
31760;SDS011;18335;51.486;7.562;2023-07-16T07:26:52;12.75;;;4.40;;
31760;SDS011;18335;51.486;7.562;2023-07-16T07:29:20;10.73;;;4.10;;
31760;SDS011;18335;51.486;7.562;2023-07-16T07:31:50;12.43;;;4.65;;
31760;SDS011;18335;51.486;7.562;2023-07-16T07:34:21;13.23;;;4.72;;
31760;SDS011;18335;51.486;7.562;2023-07-16T07:36:48;14.25;;;3.67;;
31760;SDS011;18335;51.486;7.562;2023-07-16T07:39:16;14.65;;;4.43;;
31760;SDS011;18335;51.486;7.562;2023-07-16T07:41:43;15.98;;;4.88;;
31760;SDS011;18335;51.486;7.562;2023-07-16T07:44:10;10.23;;;4.80;;
31760;SDS011;18335;51.486;7.562;2023-07-16T07:46:41;10.85;;;4.25;;
31760;SDS011;18335;51.486;7.562;2023-07-16T07:49:10;13.10;;;4.50;;
31760;SDS011;18335;51.486;7.562;2023-07-16T07:51:37;13.98;;;4.38;;
31760;SDS011;18335;51.486;7.562;2023-07-16T07:54:04;14.68;;;4.68;;
31760;SDS011;18335;51.486;7.562;2023-07-16T07:56:32;11.80;;;5.05;;
31760;SDS011;18335;51.486;7.562;2023-07-16T07:58:59;15.30;;;4.93;;
31760;SDS011;18335;51.486;7.562;2023-07-16T08:01:26;10.57;;;4.55;;
31760;SDS011;18335;51.486;7.562;2023-07-16T08:03:56;12.43;;;4.13;;
31760;SDS011;18335;51.486;7.562;2023-07-16T08:06:26;10.32;;;3.97;;
31760;SDS011;18335;51.486;7.562;2023-07-16T08:09:00;11.30;;;3.90;;
31760;SDS011;18335;51.486;7.562;2023-07-16T08:11:27;12.57;;;4.13;;
31760;SDS011;18335;51.486;7.562;2023-07-16T08:13:55;11.15;;;4.30;;
31760;SDS011;18335;51.486;7.562;2023-07-16T08:16:22;9.18;;;4.25;;
31760;SDS011;18335;51.486;7.562;2023-07-16T08:18:48;9.88;;;4.35;;
31760;SDS011;18335;51.486;7.562;2023-07-16T08:21:16;9.65;;;4.30;;
31760;SDS011;18335;51.486;7.562;2023-07-16T08:23:46;9.98;;;4.40;;
31760;SDS011;18335;51.486;7.562;2023-07-16T08:26:13;9.30;;;4.47;;
31760;SDS011;18335;51.486;7.562;2023-07-16T08:28:40;11.77;;;4.72;;
31760;SDS011;18335;51.486;7.562;2023-07-16T08:31:08;10.77;;;4.28;;
31760;SDS011;18335;51.486;7.562;2023-07-16T08:33:36;12.98;;;4.13;;
31760;SDS011;18335;51.486;7.562;2023-07-16T08:36:04;9.85;;;3.53;;
31760;SDS011;18335;51.486;7.562;2023-07-16T08:38:31;12.85;;;5.63;;
31760;SDS011;18335;51.486;7.562;2023-07-16T08:41:00;11.35;;;4.35;;
31760;SDS011;18335;51.486;7.562;2023-07-16T08:43:29;11.73;;;4.05;;
31760;SDS011;18335;51.486;7.562;2023-07-16T08:45:56;9.63;;;4.07;;
31760;SDS011;18335;51.486;7.562;2023-07-16T08:48:23;13.77;;;5.05;;
31760;SDS011;18335;51.486;7.562;2023-07-16T08:50:50;9.15;;;4.28;;
31760;SDS011;18335;51.486;7.562;2023-07-16T08:53:18;12.32;;;4.05;;
31760;SDS011;18335;51.486;7.562;2023-07-16T08:55:46;11.40;;;4.03;;
31760;SDS011;18335;51.486;7.562;2023-07-16T08:58:15;19.40;;;4.78;;
31760;SDS011;18335;51.486;7.562;2023-07-16T09:00:42;9.43;;;4.28;;
31760;SDS011;18335;51.486;7.562;2023-07-16T09:03:10;14.02;;;3.90;;
31760;SDS011;18335;51.486;7.562;2023-07-16T09:05:40;13.30;;;4.97;;
31760;SDS011;18335;51.486;7.562;2023-07-16T09:08:09;11.00;;;4.15;;
31760;SDS011;18335;51.486;7.562;2023-07-16T09:10:39;10.05;;;4.13;;
31760;SDS011;18335;51.486;7.562;2023-07-16T09:13:07;13.90;;;4.10;;
31760;SDS011;18335;51.486;7.562;2023-07-16T09:15:35;14.20;;;4.47;;
31760;SDS011;18335;51.486;7.562;2023-07-16T09:18:03;13.55;;;4.22;;
31760;SDS011;18335;51.486;7.562;2023-07-16T09:20:30;13.98;;;4.18;;
31760;SDS011;18335;51.486;7.562;2023-07-16T09:22:59;9.98;;;3.88;;
31760;SDS011;18335;51.486;7.562;2023-07-16T09:25:30;11.40;;;3.75;;
31760;SDS011;18335;51.486;7.562;2023-07-16T09:27:58;11.23;;;4.35;;
31760;SDS011;18335;51.486;7.562;2023-07-16T09:30:31;9.57;;;4.10;;
31760;SDS011;18335;51.486;7.562;2023-07-16T09:33:08;10.80;;;4.32;;
31760;SDS011;18335;51.486;7.562;2023-07-16T09:35:37;12.98;;;4.45;;
31760;SDS011;18335;51.486;7.562;2023-07-16T09:38:04;8.75;;;4.10;;
31760;SDS011;18335;51.486;7.562;2023-07-16T09:40:32;9.98;;;4.22;;
31760;SDS011;18335;51.486;7.562;2023-07-16T09:42:59;10.40;;;4.35;;
31760;SDS011;18335;51.486;7.562;2023-07-16T09:45:28;9.95;;;3.83;;
31760;SDS011;18335;51.486;7.562;2023-07-16T09:47:54;11.35;;;3.80;;
31760;SDS011;18335;51.486;7.562;2023-07-16T09:50:23;9.35;;;3.60;;
31760;SDS011;18335;51.486;7.562;2023-07-16T09:52:51;10.43;;;3.63;;
31760;SDS011;18335;51.486;7.562;2023-07-16T09:55:18;6.45;;;3.40;;
31760;SDS011;18335;51.486;7.562;2023-07-16T09:57:49;9.18;;;4.07;;
31760;SDS011;18335;51.486;7.562;2023-07-16T10:00:18;10.13;;;3.45;;
31760;SDS011;18335;51.486;7.562;2023-07-16T10:02:47;8.73;;;4.45;;
31760;SDS011;18335;51.486;7.562;2023-07-16T10:05:14;8.32;;;3.55;;
31760;SDS011;18335;51.486;7.562;2023-07-16T10:07:43;9.88;;;3.58;;
31760;SDS011;18335;51.486;7.562;2023-07-16T10:10:15;10.65;;;4.07;;
31760;SDS011;18335;51.486;7.562;2023-07-16T10:12:43;12.93;;;3.53;;
31760;SDS011;18335;51.486;7.562;2023-07-16T10:15:24;9.13;;;3.83;;
31760;SDS011;18335;51.486;7.562;2023-07-16T10:17:52;11.30;;;4.07;;
31760;SDS011;18335;51.486;7.562;2023-07-16T10:20:27;10.93;;;4.50;;
31760;SDS011;18335;51.486;7.562;2023-07-16T10:22:57;8.27;;;3.83;;
31760;SDS011;18335;51.486;7.562;2023-07-16T10:25:26;8.13;;;3.55;;
31760;SDS011;18335;51.486;7.562;2023-07-16T10:27:55;6.55;;;3.40;;
31760;SDS011;18335;51.486;7.562;2023-07-16T10:30:22;10.13;;;4.10;;
31760;SDS011;18335;51.486;7.562;2023-07-16T10:32:50;9.63;;;3.65;;
31760;SDS011;18335;51.486;7.562;2023-07-16T10:35:19;10.02;;;3.88;;
31760;SDS011;18335;51.486;7.562;2023-07-16T10:37:47;9.30;;;3.22;;
31760;SDS011;18335;51.486;7.562;2023-07-16T10:40:17;12.18;;;4.60;;
31760;SDS011;18335;51.486;7.562;2023-07-16T10:42:44;8.85;;;4.05;;
31760;SDS011;18335;51.486;7.562;2023-07-16T10:45:12;8.70;;;4.68;;
31760;SDS011;18335;51.486;7.562;2023-07-16T10:47:39;13.10;;;4.10;;
31760;SDS011;18335;51.486;7.562;2023-07-16T10:50:18;10.55;;;3.72;;
31760;SDS011;18335;51.486;7.562;2023-07-16T10:52:45;7.10;;;3.42;;
31760;SDS011;18335;51.486;7.562;2023-07-16T10:55:12;9.13;;;3.63;;
31760;SDS011;18335;51.486;7.562;2023-07-16T10:57:43;9.35;;;3.72;;
31760;SDS011;18335;51.486;7.562;2023-07-16T11:00:12;9.93;;;3.25;;
31760;SDS011;18335;51.486;7.562;2023-07-16T11:02:41;11.43;;;4.25;;
31760;SDS011;18335;51.486;7.562;2023-07-16T11:05:09;8.77;;;4.03;;
31760;SDS011;18335;51.486;7.562;2023-07-16T11:07:37;7.80;;;3.50;;
31760;SDS011;18335;51.486;7.562;2023-07-16T11:10:04;10.23;;;3.58;;
31760;SDS011;18335;51.486;7.562;2023-07-16T11:12:33;7.97;;;3.15;;
31760;SDS011;18335;51.486;7.562;2023-07-16T11:15:01;7.45;;;3.63;;
31760;SDS011;18335;51.486;7.562;2023-07-16T11:17:29;10.48;;;3.45;;
31760;SDS011;18335;51.486;7.562;2023-07-16T11:19:59;9.50;;;3.38;;
31760;SDS011;18335;51.486;7.562;2023-07-16T11:22:26;6.80;;;3.10;;
31760;SDS011;18335;51.486;7.562;2023-07-16T11:24:54;7.05;;;2.95;;
31760;SDS011;18335;51.486;7.562;2023-07-16T11:27:24;8.25;;;3.42;;
31760;SDS011;18335;51.486;7.562;2023-07-16T11:29:52;9.15;;;3.50;;
31760;SDS011;18335;51.486;7.562;2023-07-16T11:32:27;8.35;;;2.90;;
31760;SDS011;18335;51.486;7.562;2023-07-16T11:34:55;5.70;;;2.03;;
31760;SDS011;18335;51.486;7.562;2023-07-16T11:37:24;12.38;;;3.13;;
31760;SDS011;18335;51.486;7.562;2023-07-16T11:39:54;7.32;;;2.45;;
31760;SDS011;18335;51.486;7.562;2023-07-16T11:42:27;9.18;;;2.90;;
31760;SDS011;18335;51.486;7.562;2023-07-16T11:44:55;9.10;;;2.97;;
31760;SDS011;18335;51.486;7.562;2023-07-16T11:47:22;7.88;;;2.70;;
31760;SDS011;18335;51.486;7.562;2023-07-16T11:49:51;7.53;;;3.30;;
31760;SDS011;18335;51.486;7.562;2023-07-16T11:52:18;8.63;;;2.70;;
31760;SDS011;18335;51.486;7.562;2023-07-16T11:54:47;9.93;;;3.00;;
31760;SDS011;18335;51.486;7.562;2023-07-16T11:57:14;6.32;;;2.75;;
31760;SDS011;18335;51.486;7.562;2023-07-16T11:59:40;6.07;;;2.53;;
31760;SDS011;18335;51.486;7.562;2023-07-16T12:02:07;8.02;;;3.90;;
31760;SDS011;18335;51.486;7.562;2023-07-16T12:04:34;6.22;;;2.80;;
31760;SDS011;18335;51.486;7.562;2023-07-16T12:07:05;6.75;;;2.60;;
31760;SDS011;18335;51.486;7.562;2023-07-16T12:09:31;9.25;;;2.88;;
31760;SDS011;18335;51.486;7.562;2023-07-16T12:11:59;8.95;;;2.97;;
31760;SDS011;18335;51.486;7.562;2023-07-16T12:14:26;9.20;;;2.97;;
31760;SDS011;18335;51.486;7.562;2023-07-16T12:16:53;8.32;;;3.05;;
31760;SDS011;18335;51.486;7.562;2023-07-16T12:19:19;9.63;;;2.53;;
31760;SDS011;18335;51.486;7.562;2023-07-16T12:21:45;9.48;;;2.75;;
31760;SDS011;18335;51.486;7.562;2023-07-16T12:24:13;7.70;;;3.08;;
31760;SDS011;18335;51.486;7.562;2023-07-16T12:26:40;6.65;;;2.53;;
31760;SDS011;18335;51.486;7.562;2023-07-16T12:29:07;9.85;;;2.60;;
31760;SDS011;18335;51.486;7.562;2023-07-16T12:31:34;7.00;;;3.03;;
31760;SDS011;18335;51.486;7.562;2023-07-16T12:34:00;7.45;;;2.45;;
31760;SDS011;18335;51.486;7.562;2023-07-16T12:36:28;6.85;;;2.78;;
31760;SDS011;18335;51.486;7.562;2023-07-16T12:38:55;8.23;;;2.95;;
31760;SDS011;18335;51.486;7.562;2023-07-16T12:41:23;8.45;;;3.35;;
31760;SDS011;18335;51.486;7.562;2023-07-16T12:43:50;7.05;;;3.30;;
31760;SDS011;18335;51.486;7.562;2023-07-16T12:46:16;5.90;;;2.60;;
31760;SDS011;18335;51.486;7.562;2023-07-16T12:48:43;7.72;;;3.13;;
31760;SDS011;18335;51.486;7.562;2023-07-16T12:51:10;10.27;;;3.47;;
31760;SDS011;18335;51.486;7.562;2023-07-16T12:53:37;7.45;;;3.17;;
31760;SDS011;18335;51.486;7.562;2023-07-16T12:56:05;8.15;;;3.40;;
31760;SDS011;18335;51.486;7.562;2023-07-16T12:58:33;9.18;;;3.65;;
31760;SDS011;18335;51.486;7.562;2023-07-16T13:01:00;10.27;;;3.60;;
31760;SDS011;18335;51.486;7.562;2023-07-16T13:03:26;7.63;;;2.90;;
31760;SDS011;18335;51.486;7.562;2023-07-16T13:05:53;9.27;;;3.03;;
31760;SDS011;18335;51.486;7.562;2023-07-16T13:08:20;6.40;;;2.90;;
31760;SDS011;18335;51.486;7.562;2023-07-16T13:10:47;10.52;;;3.70;;
31760;SDS011;18335;51.486;7.562;2023-07-16T13:13:14;6.95;;;3.63;;
31760;SDS011;18335;51.486;7.562;2023-07-16T13:15:42;6.65;;;3.08;;
31760;SDS011;18335;51.486;7.562;2023-07-16T13:18:10;7.93;;;3.05;;
31760;SDS011;18335;51.486;7.562;2023-07-16T13:20:37;7.20;;;3.42;;
31760;SDS011;18335;51.486;7.562;2023-07-16T13:23:04;9.27;;;4.03;;
31760;SDS011;18335;51.486;7.562;2023-07-16T13:25:31;7.72;;;3.58;;
31760;SDS011;18335;51.486;7.562;2023-07-16T13:27:58;6.15;;;2.55;;
31760;SDS011;18335;51.486;7.562;2023-07-16T13:30:25;9.35;;;2.90;;
31760;SDS011;18335;51.486;7.562;2023-07-16T13:32:53;6.85;;;2.95;;
31760;SDS011;18335;51.486;7.562;2023-07-16T13:35:21;7.00;;;2.75;;
31760;SDS011;18335;51.486;7.562;2023-07-16T13:37:48;7.60;;;2.90;;
31760;SDS011;18335;51.486;7.562;2023-07-16T13:40:15;6.97;;;3.42;;
31760;SDS011;18335;51.486;7.562;2023-07-16T13:42:45;10.18;;;2.97;;
31760;SDS011;18335;51.486;7.562;2023-07-16T13:45:12;8.48;;;3.70;;
31760;SDS011;18335;51.486;7.562;2023-07-16T13:47:39;7.55;;;3.22;;
31760;SDS011;18335;51.486;7.562;2023-07-16T13:50:07;8.30;;;3.63;;
31760;SDS011;18335;51.486;7.562;2023-07-16T13:52:34;6.90;;;2.30;;
31760;SDS011;18335;51.486;7.562;2023-07-16T13:55:01;9.98;;;3.13;;
31760;SDS011;18335;51.486;7.562;2023-07-16T13:57:29;8.35;;;3.50;;
31760;SDS011;18335;51.486;7.562;2023-07-16T13:59:56;8.00;;;3.35;;
31760;SDS011;18335;51.486;7.562;2023-07-16T14:02:22;12.38;;;3.45;;
31760;SDS011;18335;51.486;7.562;2023-07-16T14:04:49;7.80;;;3.60;;
31760;SDS011;18335;51.486;7.562;2023-07-16T14:07:17;8.98;;;3.50;;
31760;SDS011;18335;51.486;7.562;2023-07-16T14:09:44;11.70;;;4.75;;
31760;SDS011;18335;51.486;7.562;2023-07-16T14:12:11;7.45;;;3.63;;
31760;SDS011;18335;51.486;7.562;2023-07-16T14:14:38;9.55;;;3.40;;
31760;SDS011;18335;51.486;7.562;2023-07-16T14:17:05;8.15;;;3.50;;
31760;SDS011;18335;51.486;7.562;2023-07-16T14:19:32;8.38;;;3.13;;
31760;SDS011;18335;51.486;7.562;2023-07-16T14:21:59;6.00;;;3.15;;
31760;SDS011;18335;51.486;7.562;2023-07-16T14:24:27;9.60;;;3.17;;
31760;SDS011;18335;51.486;7.562;2023-07-16T14:26:57;7.45;;;3.38;;
31760;SDS011;18335;51.486;7.562;2023-07-16T14:29:25;13.35;;;3.25;;
31760;SDS011;18335;51.486;7.562;2023-07-16T14:31:52;9.70;;;2.95;;
31760;SDS011;18335;51.486;7.562;2023-07-16T14:34:19;8.80;;;3.17;;
31760;SDS011;18335;51.486;7.562;2023-07-16T14:36:46;6.50;;;2.80;;
31760;SDS011;18335;51.486;7.562;2023-07-16T14:39:13;7.53;;;3.65;;
31760;SDS011;18335;51.486;7.562;2023-07-16T14:41:42;12.43;;;7.97;;
31760;SDS011;18335;51.486;7.562;2023-07-16T14:44:08;8.65;;;3.53;;
31760;SDS011;18335;51.486;7.562;2023-07-16T14:46:35;11.88;;;4.45;;
31760;SDS011;18335;51.486;7.562;2023-07-16T14:49:02;9.75;;;4.13;;
31760;SDS011;18335;51.486;7.562;2023-07-16T14:51:29;10.48;;;3.50;;
31760;SDS011;18335;51.486;7.562;2023-07-16T14:53:56;10.00;;;3.80;;